sensor_id;sensor_type;location;lat;lon;timestamp;P1;durP1;ratioP1;P2;durP2;ratioP2
20090;SDS011;10205;49.678;6.560;2023-01-10T00:02:24;1.00;;;1.00;;
20090;SDS011;10205;49.678;6.560;2023-01-10T00:04:51;1.07;;;1.07;;
20090;SDS011;10205;49.678;6.560;2023-01-10T00:07:18;1.43;;;0.97;;
20090;SDS011;10205;49.678;6.560;2023-01-10T00:09:45;0.90;;;0.90;;
20090;SDS011;10205;49.678;6.560;2023-01-10T00:12:12;0.90;;;0.90;;
20090;SDS011;10205;49.678;6.560;2023-01-10T00:14:58;0.90;;;0.90;;
20090;SDS011;10205;49.678;6.560;2023-01-10T00:17:25;1.00;;;1.00;;
20090;SDS011;10205;49.678;6.560;2023-01-10T00:19:52;1.00;;;1.00;;
20090;SDS011;10205;49.678;6.560;2023-01-10T00:22:19;0.90;;;0.90;;
20090;SDS011;10205;49.678;6.560;2023-01-10T00:24:49;0.90;;;0.90;;
20090;SDS011;10205;49.678;6.560;2023-01-10T00:27:16;0.90;;;0.90;;
20090;SDS011;10205;49.678;6.560;2023-01-10T00:29:46;1.47;;;1.20;;
20090;SDS011;10205;49.678;6.560;2023-01-10T00:32:17;1.17;;;1.00;;
20090;SDS011;10205;49.678;6.560;2023-01-10T00:34:45;1.30;;;0.90;;
20090;SDS011;10205;49.678;6.560;2023-01-10T00:37:12;0.90;;;0.90;;
20090;SDS011;10205;49.678;6.560;2023-01-10T00:39:40;4.30;;;0.90;;
20090;SDS011;10205;49.678;6.560;2023-01-10T00:42:08;0.90;;;0.90;;
20090;SDS011;10205;49.678;6.560;2023-01-10T00:44:53;1.00;;;1.00;;
20090;SDS011;10205;49.678;6.560;2023-01-10T00:47:21;1.30;;;1.10;;
20090;SDS011;10205;49.678;6.560;2023-01-10T00:49:48;0.77;;;0.77;;
20090;SDS011;10205;49.678;6.560;2023-01-10T00:52:16;1.00;;;1.00;;
20090;SDS011;10205;49.678;6.560;2023-01-10T00:54:48;0.90;;;0.90;;
20090;SDS011;10205;49.678;6.560;2023-01-10T00:57:15;1.33;;;0.90;;
20090;SDS011;10205;49.678;6.560;2023-01-10T00:59:42;1.17;;;1.00;;
20090;SDS011;10205;49.678;6.560;2023-01-10T01:02:09;1.10;;;1.10;;
20090;SDS011;10205;49.678;6.560;2023-01-10T01:04:38;1.63;;;1.00;;
20090;SDS011;10205;49.678;6.560;2023-01-10T01:07:05;2.20;;;1.03;;
20090;SDS011;10205;49.678;6.560;2023-01-10T01:09:32;2.00;;;1.03;;
20090;SDS011;10205;49.678;6.560;2023-01-10T01:12:19;1.30;;;1.20;;
20090;SDS011;10205;49.678;6.560;2023-01-10T01:14:46;1.80;;;0.90;;
20090;SDS011;10205;49.678;6.560;2023-01-10T01:17:13;1.77;;;1.20;;
20090;SDS011;10205;49.678;6.560;2023-01-10T01:19:41;2.53;;;1.30;;
20090;SDS011;10205;49.678;6.560;2023-01-10T01:22:08;4.60;;;1.07;;
20090;SDS011;10205;49.678;6.560;2023-01-10T01:24:36;2.27;;;1.10;;
20090;SDS011;10205;49.678;6.560;2023-01-10T01:27:03;1.37;;;1.17;;
20090;SDS011;10205;49.678;6.560;2023-01-10T01:29:30;1.10;;;1.10;;
20090;SDS011;10205;49.678;6.560;2023-01-10T01:31:57;1.40;;;1.10;;
20090;SDS011;10205;49.678;6.560;2023-01-10T01:34:24;1.43;;;1.10;;
20090;SDS011;10205;49.678;6.560;2023-01-10T01:36:53;2.27;;;1.30;;
20090;SDS011;10205;49.678;6.560;2023-01-10T01:39:21;1.33;;;1.23;;
20090;SDS011;10205;49.678;6.560;2023-01-10T01:41:48;2.50;;;1.20;;
20090;SDS011;10205;49.678;6.560;2023-01-10T01:44:28;2.20;;;1.33;;
20090;SDS011;10205;49.678;6.560;2023-01-10T01:46:59;1.63;;;1.20;;
20090;SDS011;10205;49.678;6.560;2023-01-10T01:49:31;2.63;;;1.50;;
20090;SDS011;10205;49.678;6.560;2023-01-10T01:52:06;3.80;;;1.30;;
20090;SDS011;10205;49.678;6.560;2023-01-10T01:54:47;3.20;;;1.50;;
20090;SDS011;10205;49.678;6.560;2023-01-10T01:57:18;1.37;;;1.27;;
20090;SDS011;10205;49.678;6.560;2023-01-10T01:59:50;3.63;;;1.53;;
20090;SDS011;10205;49.678;6.560;2023-01-10T02:02:21;4.07;;;1.70;;
20090;SDS011;10205;49.678;6.560;2023-01-10T02:04:54;1.90;;;1.40;;
20090;SDS011;10205;49.678;6.560;2023-01-10T02:07:27;3.87;;;1.97;;
20090;SDS011;10205;49.678;6.560;2023-01-10T02:10:02;2.67;;;1.40;;
20090;SDS011;10205;49.678;6.560;2023-01-10T02:12:37;3.20;;;1.60;;
20090;SDS011;10205;49.678;6.560;2023-01-10T02:15:05;1.20;;;1.10;;
20090;SDS011;10205;49.678;6.560;2023-01-10T02:17:38;3.23;;;1.70;;
20090;SDS011;10205;49.678;6.560;2023-01-10T02:20:06;3.23;;;1.57;;
20090;SDS011;10205;49.678;6.560;2023-01-10T02:22:50;1.30;;;1.20;;
20090;SDS011;10205;49.678;6.560;2023-01-10T02:29:23;5.27;;;1.90;;
20090;SDS011;10205;49.678;6.560;2023-01-10T02:32:33;4.33;;;1.67;;
20090;SDS011;10205;49.678;6.560;2023-01-10T02:35:12;4.30;;;1.57;;
20090;SDS011;10205;49.678;6.560;2023-01-10T02:38:02;2.00;;;1.40;;
20090;SDS011;10205;49.678;6.560;2023-01-10T02:40:44;6.30;;;1.60;;
20090;SDS011;10205;49.678;6.560;2023-01-10T02:43:18;2.90;;;1.50;;
20090;SDS011;10205;49.678;6.560;2023-01-10T02:45:53;5.53;;;2.10;;
20090;SDS011;10205;49.678;6.560;2023-01-10T02:48:26;2.57;;;1.60;;
20090;SDS011;10205;49.678;6.560;2023-01-10T02:50:55;2.97;;;1.90;;
20090;SDS011;10205;49.678;6.560;2023-01-10T02:53:29;3.50;;;1.87;;
20090;SDS011;10205;49.678;6.560;2023-01-10T03:02:38;4.50;;;2.10;;
20090;SDS011;10205;49.678;6.560;2023-01-10T03:05:48;3.27;;;1.97;;
20090;SDS011;10205;49.678;6.560;2023-01-10T03:08:26;4.77;;;2.00;;
20090;SDS011;10205;49.678;6.560;2023-01-10T03:11:04;3.97;;;2.07;;
20090;SDS011;10205;49.678;6.560;2023-01-10T03:13:35;6.13;;;2.53;;
20090;SDS011;10205;49.678;6.560;2023-01-10T03:16:09;7.43;;;2.00;;
20090;SDS011;10205;49.678;6.560;2023-01-10T03:18:43;3.67;;;1.60;;
20090;SDS011;10205;49.678;6.560;2023-01-10T03:21:18;4.90;;;1.83;;
20090;SDS011;10205;49.678;6.560;2023-01-10T03:23:49;8.67;;;1.90;;
20090;SDS011;10205;49.678;6.560;2023-01-10T03:26:24;4.53;;;2.37;;
20090;SDS011;10205;49.678;6.560;2023-01-10T03:28:59;8.43;;;2.97;;
20090;SDS011;10205;49.678;6.560;2023-01-10T03:31:34;4.73;;;2.30;;
20090;SDS011;10205;49.678;6.560;2023-01-10T03:34:07;5.63;;;2.10;;
20090;SDS011;10205;49.678;6.560;2023-01-10T03:36:36;10.13;;;2.47;;
20090;SDS011;10205;49.678;6.560;2023-01-10T03:39:17;11.20;;;2.33;;
20090;SDS011;10205;49.678;6.560;2023-01-10T03:41:56;8.53;;;2.47;;
20090;SDS011;10205;49.678;6.560;2023-01-10T03:44:32;6.07;;;2.10;;
20090;SDS011;10205;49.678;6.560;2023-01-10T03:47:08;5.93;;;2.07;;
20090;SDS011;10205;49.678;6.560;2023-01-10T03:49:44;8.70;;;2.67;;
20090;SDS011;10205;49.678;6.560;2023-01-10T03:52:16;9.57;;;2.57;;
20090;SDS011;10205;49.678;6.560;2023-01-10T03:54:46;4.00;;;1.87;;
20090;SDS011;10205;49.678;6.560;2023-01-10T03:57:18;3.93;;;2.30;;
20090;SDS011;10205;49.678;6.560;2023-01-10T03:59:49;3.90;;;2.10;;
20090;SDS011;10205;49.678;6.560;2023-01-10T04:02:19;5.77;;;2.50;;
20090;SDS011;10205;49.678;6.560;2023-01-10T04:04:46;9.07;;;2.37;;
20090;SDS011;10205;49.678;6.560;2023-01-10T04:07:13;6.93;;;2.40;;
20090;SDS011;10205;49.678;6.560;2023-01-10T04:09:41;3.97;;;1.93;;
20090;SDS011;10205;49.678;6.560;2023-01-10T04:12:15;5.67;;;2.50;;
20090;SDS011;10205;49.678;6.560;2023-01-10T04:14:42;6.53;;;2.13;;
20090;SDS011;10205;49.678;6.560;2023-01-10T04:17:11;5.30;;;2.73;;
20090;SDS011;10205;49.678;6.560;2023-01-10T04:19:39;6.80;;;2.43;;
20090;SDS011;10205;49.678;6.560;2023-01-10T04:22:06;4.97;;;2.57;;
20090;SDS011;10205;49.678;6.560;2023-01-10T04:24:34;5.27;;;2.67;;
20090;SDS011;10205;49.678;6.560;2023-01-10T04:27:03;11.17;;;3.13;;
20090;SDS011;10205;49.678;6.560;2023-01-10T04:29:32;6.77;;;2.43;;
20090;SDS011;10205;49.678;6.560;2023-01-10T04:31:59;9.93;;;2.87;;
20090;SDS011;10205;49.678;6.560;2023-01-10T04:34:26;8.60;;;2.70;;
20090;SDS011;10205;49.678;6.560;2023-01-10T04:36:54;7.37;;;2.40;;
20090;SDS011;10205;49.678;6.560;2023-01-10T04:39:21;9.50;;;2.83;;
20090;SDS011;10205;49.678;6.560;2023-01-10T04:41:48;7.80;;;2.83;;
20090;SDS011;10205;49.678;6.560;2023-01-10T04:44:16;10.60;;;2.80;;
20090;SDS011;10205;49.678;6.560;2023-01-10T04:46:43;8.40;;;2.63;;
20090;SDS011;10205;49.678;6.560;2023-01-10T04:49:10;9.00;;;2.60;;
20090;SDS011;10205;49.678;6.560;2023-01-10T04:51:38;4.63;;;2.60;;
20090;SDS011;10205;49.678;6.560;2023-01-10T04:54:05;10.23;;;3.20;;
20090;SDS011;10205;49.678;6.560;2023-01-10T04:56:32;4.43;;;2.23;;
20090;SDS011;10205;49.678;6.560;2023-01-10T04:58:59;5.87;;;2.20;;
20090;SDS011;10205;49.678;6.560;2023-01-10T05:01:31;7.80;;;2.60;;
20090;SDS011;10205;49.678;6.560;2023-01-10T05:04:03;9.03;;;3.03;;
20090;SDS011;10205;49.678;6.560;2023-01-10T05:06:31;10.20;;;2.40;;
20090;SDS011;10205;49.678;6.560;2023-01-10T05:08:58;6.03;;;2.30;;
20090;SDS011;10205;49.678;6.560;2023-01-10T05:11:25;4.73;;;2.10;;
20090;SDS011;10205;49.678;6.560;2023-01-10T05:13:52;11.07;;;2.63;;
20090;SDS011;10205;49.678;6.560;2023-01-10T05:16:19;5.17;;;2.13;;
20090;SDS011;10205;49.678;6.560;2023-01-10T05:18:48;6.27;;;2.57;;
20090;SDS011;10205;49.678;6.560;2023-01-10T05:21:15;9.17;;;2.93;;
20090;SDS011;10205;49.678;6.560;2023-01-10T05:23:43;6.30;;;2.63;;
20090;SDS011;10205;49.678;6.560;2023-01-10T05:26:10;8.57;;;2.40;;
20090;SDS011;10205;49.678;6.560;2023-01-10T05:28:41;5.93;;;2.73;;
20090;SDS011;10205;49.678;6.560;2023-01-10T05:31:10;6.60;;;2.37;;
20090;SDS011;10205;49.678;6.560;2023-01-10T05:33:42;7.20;;;3.03;;
20090;SDS011;10205;49.678;6.560;2023-01-10T05:36:15;6.57;;;2.70;;
20090;SDS011;10205;49.678;6.560;2023-01-10T05:38:43;5.40;;;2.10;;
20090;SDS011;10205;49.678;6.560;2023-01-10T05:41:11;8.83;;;2.73;;
20090;SDS011;10205;49.678;6.560;2023-01-10T05:43:38;5.27;;;2.47;;
20090;SDS011;10205;49.678;6.560;2023-01-10T05:46:05;6.40;;;2.30;;
20090;SDS011;10205;49.678;6.560;2023-01-10T05:48:33;6.20;;;2.33;;
20090;SDS011;10205;49.678;6.560;2023-01-10T05:51:00;6.20;;;2.23;;
20090;SDS011;10205;49.678;6.560;2023-01-10T05:53:29;7.50;;;2.57;;
20090;SDS011;10205;49.678;6.560;2023-01-10T05:55:56;4.83;;;2.37;;
20090;SDS011;10205;49.678;6.560;2023-01-10T05:58:26;4.50;;;2.20;;
20090;SDS011;10205;49.678;6.560;2023-01-10T06:00:54;11.73;;;2.87;;
20090;SDS011;10205;49.678;6.560;2023-01-10T06:03:23;3.93;;;2.07;;
20090;SDS011;10205;49.678;6.560;2023-01-10T06:05:51;4.40;;;2.20;;
20090;SDS011;10205;49.678;6.560;2023-01-10T06:08:18;7.17;;;2.60;;
20090;SDS011;10205;49.678;6.560;2023-01-10T06:10:47;8.03;;;2.80;;
20090;SDS011;10205;49.678;6.560;2023-01-10T06:13:15;9.03;;;2.70;;
20090;SDS011;10205;49.678;6.560;2023-01-10T06:15:42;9.43;;;2.63;;
20090;SDS011;10205;49.678;6.560;2023-01-10T06:18:09;10.87;;;3.17;;
20090;SDS011;10205;49.678;6.560;2023-01-10T06:20:36;5.20;;;2.23;;
20090;SDS011;10205;49.678;6.560;2023-01-10T06:23:03;6.37;;;2.37;;
20090;SDS011;10205;49.678;6.560;2023-01-10T06:25:31;7.27;;;2.50;;
20090;SDS011;10205;49.678;6.560;2023-01-10T06:28:02;5.83;;;2.57;;
20090;SDS011;10205;49.678;6.560;2023-01-10T06:30:29;7.60;;;3.17;;
20090;SDS011;10205;49.678;6.560;2023-01-10T06:32:59;5.33;;;2.60;;
20090;SDS011;10205;49.678;6.560;2023-01-10T06:35:27;6.93;;;2.90;;
20090;SDS011;10205;49.678;6.560;2023-01-10T06:37:55;8.00;;;2.47;;
20090;SDS011;10205;49.678;6.560;2023-01-10T06:40:23;6.23;;;2.73;;
20090;SDS011;10205;49.678;6.560;2023-01-10T06:42:50;9.70;;;2.97;;
20090;SDS011;10205;49.678;6.560;2023-01-10T06:45:19;7.90;;;2.70;;
20090;SDS011;10205;49.678;6.560;2023-01-10T06:47:46;8.57;;;2.90;;
20090;SDS011;10205;49.678;6.560;2023-01-10T06:50:13;6.20;;;2.50;;
20090;SDS011;10205;49.678;6.560;2023-01-10T06:52:43;7.40;;;2.53;;
20090;SDS011;10205;49.678;6.560;2023-01-10T06:55:10;9.43;;;3.10;;
20090;SDS011;10205;49.678;6.560;2023-01-10T06:57:37;7.57;;;2.27;;
20090;SDS011;10205;49.678;6.560;2023-01-10T07:00:05;4.63;;;2.53;;
20090;SDS011;10205;49.678;6.560;2023-01-10T07:02:37;9.40;;;2.80;;
20090;SDS011;10205;49.678;6.560;2023-01-10T07:05:04;8.27;;;2.63;;
20090;SDS011;10205;49.678;6.560;2023-01-10T07:07:32;5.10;;;2.60;;
20090;SDS011;10205;49.678;6.560;2023-01-10T07:09:59;7.10;;;3.10;;
20090;SDS011;10205;49.678;6.560;2023-01-10T07:12:26;7.97;;;3.07;;
20090;SDS011;10205;49.678;6.560;2023-01-10T07:14:53;10.10;;;3.20;;
20090;SDS011;10205;49.678;6.560;2023-01-10T07:17:20;13.10;;;3.17;;
20090;SDS011;10205;49.678;6.560;2023-01-10T07:19:48;6.23;;;2.57;;
20090;SDS011;10205;49.678;6.560;2023-01-10T07:22:15;5.63;;;2.53;;
20090;SDS011;10205;49.678;6.560;2023-01-10T07:24:42;6.37;;;2.83;;
20090;SDS011;10205;49.678;6.560;2023-01-10T07:27:10;6.53;;;2.83;;
20090;SDS011;10205;49.678;6.560;2023-01-10T07:29:37;11.50;;;3.67;;
20090;SDS011;10205;49.678;6.560;2023-01-10T07:32:08;9.20;;;2.70;;
20090;SDS011;10205;49.678;6.560;2023-01-10T07:34:35;5.70;;;2.43;;
20090;SDS011;10205;49.678;6.560;2023-01-10T07:37:03;7.43;;;3.43;;
20090;SDS011;10205;49.678;6.560;2023-01-10T07:39:30;6.53;;;2.57;;
20090;SDS011;10205;49.678;6.560;2023-01-10T07:41:58;10.73;;;3.00;;
20090;SDS011;10205;49.678;6.560;2023-01-10T07:44:25;7.47;;;3.00;;
20090;SDS011;10205;49.678;6.560;2023-01-10T07:46:56;7.97;;;3.20;;
20090;SDS011;10205;49.678;6.560;2023-01-10T07:49:23;7.87;;;3.53;;
20090;SDS011;10205;49.678;6.560;2023-01-10T07:51:50;6.70;;;3.10;;
20090;SDS011;10205;49.678;6.560;2023-01-10T07:54:19;8.37;;;3.13;;
20090;SDS011;10205;49.678;6.560;2023-01-10T07:56:46;8.40;;;3.63;;
20090;SDS011;10205;49.678;6.560;2023-01-10T07:59:14;11.77;;;3.40;;
20090;SDS011;10205;49.678;6.560;2023-01-10T08:01:41;14.93;;;3.50;;
20090;SDS011;10205;49.678;6.560;2023-01-10T08:04:08;7.70;;;3.63;;
20090;SDS011;10205;49.678;6.560;2023-01-10T08:06:38;9.77;;;3.47;;
20090;SDS011;10205;49.678;6.560;2023-01-10T08:09:05;11.10;;;3.93;;
20090;SDS011;10205;49.678;6.560;2023-01-10T08:11:33;11.27;;;3.40;;
20090;SDS011;10205;49.678;6.560;2023-01-10T08:14:00;14.40;;;3.60;;
20090;SDS011;10205;49.678;6.560;2023-01-10T08:16:27;8.97;;;3.47;;
20090;SDS011;10205;49.678;6.560;2023-01-10T08:18:54;7.63;;;2.97;;
20090;SDS011;10205;49.678;6.560;2023-01-10T08:21:25;8.87;;;4.57;;
20090;SDS011;10205;49.678;6.560;2023-01-10T08:23:52;13.63;;;3.20;;
20090;SDS011;10205;49.678;6.560;2023-01-10T08:26:20;11.80;;;3.60;;
20090;SDS011;10205;49.678;6.560;2023-01-10T08:28:48;10.30;;;3.20;;
20090;SDS011;10205;49.678;6.560;2023-01-10T08:31:20;8.63;;;3.30;;
20090;SDS011;10205;49.678;6.560;2023-01-10T08:33:47;12.40;;;3.27;;
20090;SDS011;10205;49.678;6.560;2023-01-10T08:36:15;8.13;;;3.10;;
20090;SDS011;10205;49.678;6.560;2023-01-10T08:38:43;10.47;;;2.93;;
20090;SDS011;10205;49.678;6.560;2023-01-10T08:41:11;9.40;;;3.20;;
20090;SDS011;10205;49.678;6.560;2023-01-10T08:43:39;9.30;;;3.20;;
20090;SDS011;10205;49.678;6.560;2023-01-10T08:46:07;13.40;;;3.57;;
20090;SDS011;10205;49.678;6.560;2023-01-10T08:48:34;11.27;;;2.83;;
20090;SDS011;10205;49.678;6.560;2023-01-10T08:51:06;10.37;;;3.23;;
20090;SDS011;10205;49.678;6.560;2023-01-10T08:53:34;11.70;;;3.50;;
20090;SDS011;10205;49.678;6.560;2023-01-10T08:56:03;8.43;;;3.20;;
20090;SDS011;10205;49.678;6.560;2023-01-10T08:58:31;12.50;;;3.40;;
20090;SDS011;10205;49.678;6.560;2023-01-10T09:00:59;11.07;;;3.97;;
20090;SDS011;10205;49.678;6.560;2023-01-10T09:03:31;8.30;;;3.23;;
20090;SDS011;10205;49.678;6.560;2023-01-10T09:05:58;14.60;;;3.37;;
20090;SDS011;10205;49.678;6.560;2023-01-10T09:08:26;11.97;;;3.07;;
20090;SDS011;10205;49.678;6.560;2023-01-10T09:10:56;13.43;;;4.00;;
20090;SDS011;10205;49.678;6.560;2023-01-10T09:13:23;7.30;;;3.13;;
20090;SDS011;10205;49.678;6.560;2023-01-10T09:15:51;12.43;;;3.90;;
20090;SDS011;10205;49.678;6.560;2023-01-10T09:18:18;6.50;;;3.00;;
20090;SDS011;10205;49.678;6.560;2023-01-10T09:20:46;9.07;;;3.03;;
20090;SDS011;10205;49.678;6.560;2023-01-10T09:23:19;13.53;;;3.30;;
20090;SDS011;10205;49.678;6.560;2023-01-10T09:25:50;12.80;;;3.50;;
20090;SDS011;10205;49.678;6.560;2023-01-10T09:28:20;8.63;;;2.77;;
20090;SDS011;10205;49.678;6.560;2023-01-10T09:30:49;13.17;;;3.27;;
20090;SDS011;10205;49.678;6.560;2023-01-10T09:33:16;13.40;;;3.80;;
20090;SDS011;10205;49.678;6.560;2023-01-10T09:35:44;8.53;;;2.67;;
20090;SDS011;10205;49.678;6.560;2023-01-10T09:38:14;10.13;;;3.33;;
20090;SDS011;10205;49.678;6.560;2023-01-10T09:44:01;18.10;;;4.17;;
20090;SDS011;10205;49.678;6.560;2023-01-10T09:46:35;18.90;;;3.73;;
20090;SDS011;10205;49.678;6.560;2023-01-10T09:49:15;10.97;;;3.10;;
20090;SDS011;10205;49.678;6.560;2023-01-10T09:51:53;9.70;;;3.17;;
20090;SDS011;10205;49.678;6.560;2023-01-10T09:54:24;9.97;;;3.57;;
20090;SDS011;10205;49.678;6.560;2023-01-10T09:56:55;14.47;;;3.87;;
20090;SDS011;10205;49.678;6.560;2023-01-10T09:59:29;10.00;;;4.20;;
20090;SDS011;10205;49.678;6.560;2023-01-10T10:02:03;9.77;;;3.70;;
20090;SDS011;10205;49.678;6.560;2023-01-10T10:04:48;9.13;;;3.83;;
20090;SDS011;10205;49.678;6.560;2023-01-10T10:07:28;12.87;;;3.90;;
20090;SDS011;10205;49.678;6.560;2023-01-10T10:09:57;10.93;;;3.93;;
20090;SDS011;10205;49.678;6.560;2023-01-10T10:12:25;7.03;;;3.37;;
20090;SDS011;10205;49.678;6.560;2023-01-10T10:15:10;8.40;;;3.60;;
20090;SDS011;10205;49.678;6.560;2023-01-10T10:17:50;11.43;;;4.07;;
20090;SDS011;10205;49.678;6.560;2023-01-10T10:20:30;13.50;;;3.53;;
20090;SDS011;10205;49.678;6.560;2023-01-10T10:23:18;8.57;;;3.17;;
20090;SDS011;10205;49.678;6.560;2023-01-10T10:26:08;11.03;;;3.50;;
20090;SDS011;10205;49.678;6.560;2023-01-10T10:31:51;8.50;;;3.80;;
20090;SDS011;10205;49.678;6.560;2023-01-10T10:34:39;12.23;;;3.30;;
20090;SDS011;10205;49.678;6.560;2023-01-10T10:37:16;10.23;;;3.70;;
20090;SDS011;10205;49.678;6.560;2023-01-10T10:39:53;10.63;;;3.37;;
20090;SDS011;10205;49.678;6.560;2023-01-10T10:42:27;8.80;;;2.87;;
20090;SDS011;10205;49.678;6.560;2023-01-10T10:45:00;10.23;;;3.13;;
20090;SDS011;10205;49.678;6.560;2023-01-10T10:47:33;11.70;;;3.63;;
20090;SDS011;10205;49.678;6.560;2023-01-10T10:50:04;10.80;;;3.50;;
20090;SDS011;10205;49.678;6.560;2023-01-10T10:52:44;8.00;;;3.27;;
20090;SDS011;10205;49.678;6.560;2023-01-10T10:55:14;13.30;;;4.00;;
20090;SDS011;10205;49.678;6.560;2023-01-10T10:57:47;9.17;;;3.10;;
20090;SDS011;10205;49.678;6.560;2023-01-10T11:00:16;10.27;;;3.40;;
20090;SDS011;10205;49.678;6.560;2023-01-10T11:02:54;9.10;;;3.40;;
20090;SDS011;10205;49.678;6.560;2023-01-10T11:05:31;9.13;;;3.70;;
20090;SDS011;10205;49.678;6.560;2023-01-10T11:08:03;11.20;;;3.90;;
20090;SDS011;10205;49.678;6.560;2023-01-10T11:10:37;9.60;;;3.60;;
20090;SDS011;10205;49.678;6.560;2023-01-10T11:13:11;9.60;;;3.37;;
20090;SDS011;10205;49.678;6.560;2023-01-10T11:15:46;12.17;;;3.20;;
20090;SDS011;10205;49.678;6.560;2023-01-10T11:18:16;11.40;;;3.30;;
20090;SDS011;10205;49.678;6.560;2023-01-10T11:20:46;8.10;;;3.47;;
20090;SDS011;10205;49.678;6.560;2023-01-10T11:23:22;9.10;;;3.07;;
20090;SDS011;10205;49.678;6.560;2023-01-10T11:26:09;9.93;;;3.20;;
20090;SDS011;10205;49.678;6.560;2023-01-10T11:28:49;8.57;;;3.73;;
20090;SDS011;10205;49.678;6.560;2023-01-10T11:31:24;11.30;;;4.10;;
20090;SDS011;10205;49.678;6.560;2023-01-10T11:33:55;7.83;;;3.50;;
20090;SDS011;10205;49.678;6.560;2023-01-10T11:36:24;11.27;;;3.60;;
20090;SDS011;10205;49.678;6.560;2023-01-10T11:38:58;9.50;;;3.07;;
20090;SDS011;10205;49.678;6.560;2023-01-10T11:41:28;7.37;;;3.50;;
20090;SDS011;10205;49.678;6.560;2023-01-10T11:46:42;11.17;;;3.30;;
20090;SDS011;10205;49.678;6.560;2023-01-10T11:49:14;7.63;;;3.20;;
20090;SDS011;10205;49.678;6.560;2023-01-10T11:51:51;7.67;;;2.93;;
20090;SDS011;10205;49.678;6.560;2023-01-10T11:54:29;8.57;;;3.73;;
20090;SDS011;10205;49.678;6.560;2023-01-10T11:57:00;11.60;;;3.47;;
20090;SDS011;10205;49.678;6.560;2023-01-10T11:59:33;9.33;;;3.50;;
20090;SDS011;10205;49.678;6.560;2023-01-10T12:02:03;8.03;;;3.30;;
20090;SDS011;10205;49.678;6.560;2023-01-10T12:04:46;8.03;;;3.27;;
20090;SDS011;10205;49.678;6.560;2023-01-10T12:07:16;9.70;;;3.27;;
20090;SDS011;10205;49.678;6.560;2023-01-10T12:09:44;10.00;;;3.37;;
20090;SDS011;10205;49.678;6.560;2023-01-10T12:12:22;13.87;;;3.37;;
20090;SDS011;10205;49.678;6.560;2023-01-10T12:14:53;11.77;;;3.37;;
20090;SDS011;10205;49.678;6.560;2023-01-10T12:17:27;10.17;;;3.20;;
20090;SDS011;10205;49.678;6.560;2023-01-10T12:19:59;12.70;;;3.77;;
20090;SDS011;10205;49.678;6.560;2023-01-10T12:22:30;10.53;;;3.23;;
20090;SDS011;10205;49.678;6.560;2023-01-10T12:25:03;14.80;;;3.57;;
20090;SDS011;10205;49.678;6.560;2023-01-10T12:27:45;12.13;;;2.77;;
20090;SDS011;10205;49.678;6.560;2023-01-10T12:30:15;11.53;;;3.13;;
20090;SDS011;10205;49.678;6.560;2023-01-10T12:32:52;8.03;;;2.87;;
20090;SDS011;10205;49.678;6.560;2023-01-10T12:35:24;5.13;;;3.07;;
20090;SDS011;10205;49.678;6.560;2023-01-10T12:38:04;6.23;;;2.70;;
20090;SDS011;10205;49.678;6.560;2023-01-10T12:40:48;10.40;;;2.57;;
20090;SDS011;10205;49.678;6.560;2023-01-10T12:43:26;9.87;;;2.90;;
20090;SDS011;10205;49.678;6.560;2023-01-10T12:46:21;12.10;;;3.37;;
20090;SDS011;10205;49.678;6.560;2023-01-10T12:48:55;9.27;;;2.60;;
20090;SDS011;10205;49.678;6.560;2023-01-10T12:51:31;14.20;;;3.20;;
20090;SDS011;10205;49.678;6.560;2023-01-10T12:54:02;8.40;;;3.53;;
20090;SDS011;10205;49.678;6.560;2023-01-10T12:56:40;11.67;;;3.20;;
20090;SDS011;10205;49.678;6.560;2023-01-10T12:59:13;8.83;;;2.77;;
20090;SDS011;10205;49.678;6.560;2023-01-10T13:01:46;15.80;;;3.80;;
20090;SDS011;10205;49.678;6.560;2023-01-10T13:04:19;11.13;;;3.20;;
20090;SDS011;10205;49.678;6.560;2023-01-10T13:06:51;13.40;;;2.90;;
20090;SDS011;10205;49.678;6.560;2023-01-10T13:09:20;14.70;;;3.47;;
20090;SDS011;10205;49.678;6.560;2023-01-10T13:11:52;9.93;;;2.90;;
20090;SDS011;10205;49.678;6.560;2023-01-10T13:14:30;8.00;;;3.13;;
20090;SDS011;10205;49.678;6.560;2023-01-10T13:17:05;9.37;;;3.43;;
20090;SDS011;10205;49.678;6.560;2023-01-10T13:23:14;8.30;;;2.83;;
20090;SDS011;10205;49.678;6.560;2023-01-10T13:25:55;8.53;;;2.93;;
20090;SDS011;10205;49.678;6.560;2023-01-10T13:28:29;10.33;;;3.33;;
20090;SDS011;10205;49.678;6.560;2023-01-10T13:31:01;7.40;;;3.07;;
20090;SDS011;10205;49.678;6.560;2023-01-10T13:33:32;9.20;;;2.97;;
20090;SDS011;10205;49.678;6.560;2023-01-10T13:36:16;7.27;;;2.80;;
20090;SDS011;10205;49.678;6.560;2023-01-10T13:38:49;11.17;;;3.17;;
20090;SDS011;10205;49.678;6.560;2023-01-10T13:41:19;15.17;;;3.73;;
20090;SDS011;10205;49.678;6.560;2023-01-10T13:44:06;9.00;;;3.20;;
20090;SDS011;10205;49.678;6.560;2023-01-10T13:46:39;7.37;;;2.90;;
20090;SDS011;10205;49.678;6.560;2023-01-10T13:55:22;14.77;;;2.93;;
20090;SDS011;10205;49.678;6.560;2023-01-10T14:01:25;13.23;;;2.87;;
20090;SDS011;10205;49.678;6.560;2023-01-10T14:04:18;15.60;;;3.00;;
20090;SDS011;10205;49.678;6.560;2023-01-10T14:06:50;12.40;;;2.97;;
20090;SDS011;10205;49.678;6.560;2023-01-10T14:09:40;7.57;;;2.93;;
20090;SDS011;10205;49.678;6.560;2023-01-10T14:12:16;10.37;;;2.70;;
20090;SDS011;10205;49.678;6.560;2023-01-10T14:14:52;11.03;;;3.30;;
20090;SDS011;10205;49.678;6.560;2023-01-10T14:17:25;9.53;;;2.97;;
20090;SDS011;10205;49.678;6.560;2023-01-10T14:20:04;8.13;;;3.10;;
20090;SDS011;10205;49.678;6.560;2023-01-10T14:22:55;9.50;;;2.80;;
20090;SDS011;10205;49.678;6.560;2023-01-10T14:25:27;14.33;;;3.57;;
20090;SDS011;10205;49.678;6.560;2023-01-10T14:27:58;12.80;;;3.17;;
20090;SDS011;10205;49.678;6.560;2023-01-10T14:30:28;8.17;;;2.83;;
20090;SDS011;10205;49.678;6.560;2023-01-10T14:32:59;8.37;;;2.67;;
20090;SDS011;10205;49.678;6.560;2023-01-10T14:35:35;9.20;;;2.63;;
20090;SDS011;10205;49.678;6.560;2023-01-10T14:38:11;12.63;;;3.23;;
20090;SDS011;10205;49.678;6.560;2023-01-10T14:40:51;11.47;;;3.17;;
20090;SDS011;10205;49.678;6.560;2023-01-10T14:43:24;7.20;;;2.50;;
20090;SDS011;10205;49.678;6.560;2023-01-10T14:46:03;10.37;;;3.17;;
20090;SDS011;10205;49.678;6.560;2023-01-10T14:48:39;6.90;;;2.87;;
20090;SDS011;10205;49.678;6.560;2023-01-10T14:51:16;9.33;;;3.00;;
20090;SDS011;10205;49.678;6.560;2023-01-10T14:53:46;11.43;;;3.00;;
20090;SDS011;10205;49.678;6.560;2023-01-10T14:56:22;12.07;;;3.10;;
20090;SDS011;10205;49.678;6.560;2023-01-10T14:58:51;9.70;;;2.67;;
20090;SDS011;10205;49.678;6.560;2023-01-10T15:01:20;7.60;;;2.23;;
20090;SDS011;10205;49.678;6.560;2023-01-10T15:03:52;13.10;;;2.93;;
20090;SDS011;10205;49.678;6.560;2023-01-10T15:06:22;8.90;;;2.53;;
20090;SDS011;10205;49.678;6.560;2023-01-10T15:08:57;11.43;;;3.57;;
20090;SDS011;10205;49.678;6.560;2023-01-10T15:11:27;7.73;;;2.83;;
20090;SDS011;10205;49.678;6.560;2023-01-10T15:14:00;6.17;;;2.40;;
20090;SDS011;10205;49.678;6.560;2023-01-10T15:16:34;8.13;;;2.90;;
20090;SDS011;10205;49.678;6.560;2023-01-10T15:19:02;9.23;;;2.40;;
20090;SDS011;10205;49.678;6.560;2023-01-10T15:21:31;10.57;;;2.70;;
20090;SDS011;10205;49.678;6.560;2023-01-10T15:23:59;11.20;;;2.60;;
20090;SDS011;10205;49.678;6.560;2023-01-10T15:26:26;11.03;;;2.77;;
20090;SDS011;10205;49.678;6.560;2023-01-10T15:29:05;8.07;;;2.43;;
20090;SDS011;10205;49.678;6.560;2023-01-10T15:31:41;10.13;;;2.87;;
20090;SDS011;10205;49.678;6.560;2023-01-10T15:34:09;9.13;;;3.07;;
20090;SDS011;10205;49.678;6.560;2023-01-10T15:36:43;11.40;;;3.00;;
20090;SDS011;10205;49.678;6.560;2023-01-10T15:39:19;11.77;;;2.57;;
20090;SDS011;10205;49.678;6.560;2023-01-10T15:41:53;8.80;;;2.50;;
20090;SDS011;10205;49.678;6.560;2023-01-10T15:44:31;10.20;;;2.27;;